Time;durP1;ratioP1;P1;durP2;ratioP2;P2;SDS_P1;SDS_P2;PMS_P1;PMS_P2;Temp;Humidity;BMP_temperature;BMP_pressure;BME280_temperature;BME280_humidity;BME280_pressure;Samples;Min_cycle;Max_cycle;Signal;HPM_P1;HPM_P2
2023/06/21 00:00:45;;;;;;;20.25;18.33;;;20.10;99.90;;;;;;5046832;28;20811;-78
2023/06/21 00:03:11;;;;;;;21.73;19.73;;;20.10;99.90;;;;;;5046411;28;20421;-74
2023/06/21 00:05:39;;;;;;;21.27;19.08;;;20.00;99.90;;;;;;5046773;28;20486;-77
2023/06/21 00:08:05;;;;;;;25.17;22.50;;;20.00;99.90;;;;;;5048892;28;21309;-76
2023/06/21 00:10:32;;;;;;;23.45;21.10;;;20.10;99.90;;;;;;5047864;28;20840;-74
2023/06/21 00:12:58;;;;;;;25.42;22.88;;;20.00;99.90;;;;;;5048495;28;20795;-75
2023/06/21 00:15:25;;;;;;;24.52;22.20;;;19.80;99.90;;;;;;5046702;28;20434;-76
2023/06/21 00:17:51;;;;;;;22.48;20.10;;;19.90;99.90;;;;;;5029034;28;20486;-77
2023/06/21 00:20:17;;;;;;;23.30;21.00;;;19.80;99.90;;;;;;5047478;28;20421;-77
2023/06/21 00:22:47;;;;;;;23.50;21.35;;;19.80;99.90;;;;;;5048545;28;20425;-77
2023/06/21 00:25:14;;;;;;;23.35;20.95;;;19.90;99.90;;;;;;5047619;28;20492;-76
2023/06/21 00:27:42;;;;;;;23.85;21.52;;;19.70;99.90;;;;;;5048103;28;20745;-76
2023/06/21 00:30:08;;;;;;;23.30;21.02;;;19.70;99.90;;;;;;5030672;28;20405;-75
2023/06/21 00:32:34;;;;;;;21.70;19.73;;;19.70;99.90;;;;;;5043750;28;20788;-76
2023/06/21 00:34:59;;;;;;;35.23;23.87;;;19.60;99.90;;;;;;5048498;28;20413;-75
2023/06/21 00:37:28;;;;;;;30.98;25.85;;;19.70;99.90;;;;;;5047999;28;20820;-75
2023/06/21 00:39:53;;;;;;;21.98;19.77;;;19.60;99.90;;;;;;5029676;28;20792;-76
2023/06/21 00:42:19;;;;;;;23.35;21.17;;;19.70;99.90;;;;;;5019515;28;20436;-76
2023/06/21 00:44:45;;;;;;;23.25;20.65;;;19.70;99.90;;;;;;5048241;28;20488;-74
2023/06/21 00:47:11;;;;;;;23.67;21.37;;;19.60;99.90;;;;;;5047363;28;20418;-75
2023/06/21 00:49:36;;;;;;;23.97;21.60;;;19.60;99.90;;;;;;5043862;28;20555;-75
2023/06/21 00:52:05;;;;;;;23.40;21.20;;;19.70;99.90;;;;;;5030080;28;20444;-76
2023/06/21 00:54:33;;;;;;;26.13;23.52;;;19.70;99.90;;;;;;5047262;28;20896;-76
2023/06/21 00:57:01;;;;;;;23.67;21.38;;;19.70;99.90;;;;;;5047595;28;20425;-77
2023/06/21 00:59:27;;;;;;;25.55;23.00;;;19.60;99.90;;;;;;5047792;28;20494;-76
2023/06/21 01:02:00;;;;;;;26.23;23.63;;;19.70;99.90;;;;;;5046218;28;21242;-74
2023/06/21 01:04:28;;;;;;;25.08;22.65;;;19.60;99.90;;;;;;5029853;28;20417;-76
2023/06/21 01:07:16;;;;;;;26.33;23.52;;;19.70;99.90;;;;;;5043078;28;20424;-75
2023/06/21 01:10:23;;;;;;;24.55;22.02;;;19.50;99.90;;;;;;5047419;28;20486;-74
2023/06/21 01:15:29;;;;;;;24.52;22.00;;;19.50;99.90;;;;;;4932033;26;20437;-76
2023/06/21 01:17:59;;;;;;;24.05;21.58;;;19.70;99.90;;;;;;4979409;28;20591;-74
2023/06/21 01:20:29;;;;;;;25.70;23.20;;;19.70;99.90;;;;;;4959356;28;20533;-75
2023/06/21 01:23:13;;;;;;;25.95;23.45;;;19.70;99.90;;;;;;5011719;28;20417;-75
2023/06/21 01:25:57;;;;;;;26.95;24.17;;;19.60;99.90;;;;;;4928385;28;20498;-76
2023/06/21 01:29:00;;;;;;;28.30;25.23;;;19.70;99.90;;;;;;4914285;28;20410;-76
2023/06/21 01:31:27;;;;;;;27.13;24.33;;;19.50;99.90;;;;;;4975773;28;20433;-74
2023/06/21 01:33:55;;;;;;;26.42;23.83;;;19.70;99.90;;;;;;4999284;28;20458;-75
2023/06/21 01:36:22;;;;;;;26.15;23.52;;;19.50;99.90;;;;;;4948969;28;20421;-77
2023/06/21 01:38:49;;;;;;;28.00;25.15;;;19.50;99.90;;;;;;4975726;28;20472;-75
2023/06/21 01:41:15;;;;;;;27.70;24.90;;;19.50;99.90;;;;;;4959239;28;20440;-76
2023/06/21 01:43:41;;;;;;;29.00;26.17;;;19.70;99.90;;;;;;4940493;28;20434;-76
2023/06/21 01:46:10;;;;;;;29.77;26.67;;;19.50;99.90;;;;;;4992519;28;20479;-77
2023/06/21 01:48:37;;;;;;;30.38;27.15;;;19.40;99.90;;;;;;5013787;28;20422;-76
2023/06/21 01:51:04;;;;;;;30.67;27.58;;;19.50;99.90;;;;;;4988799;28;20429;-76
2023/06/21 01:53:34;;;;;;;30.30;27.35;;;19.50;99.90;;;;;;5047594;28;21190;-75
2023/06/21 01:56:01;;;;;;;30.38;27.45;;;19.50;99.90;;;;;;5025062;28;20438;-75
2023/06/21 01:58:28;;;;;;;30.58;27.52;;;19.40;99.90;;;;;;4918043;29;20467;-75
2023/06/21 02:00:56;;;;;;;30.27;27.25;;;19.50;99.90;;;;;;4985920;28;20442;-75
2023/06/21 02:03:22;;;;;;;33.00;29.48;;;19.60;99.90;;;;;;4945293;28;20429;-75
2023/06/21 02:05:49;;;;;;;32.60;28.02;;;19.30;99.90;;;;;;5011934;28;20417;-77
2023/06/21 02:08:18;;;;;;;37.60;32.53;;;19.40;99.90;;;;;;5049927;28;20962;-76
2023/06/21 02:10:46;;;;;;;32.50;29.10;;;19.30;99.90;;;;;;5023106;28;20449;-77
2023/06/21 02:13:16;;;;;;;38.60;33.20;;;19.30;99.90;;;;;;4961088;28;20940;-76
2023/06/21 02:15:42;;;;;;;36.15;32.53;;;19.30;99.90;;;;;;4971252;28;20460;-75
2023/06/21 02:18:09;;;;;;;36.97;33.17;;;19.30;99.90;;;;;;4997118;28;20452;-75
2023/06/21 02:20:35;;;;;;;36.75;33.03;;;19.20;99.90;;;;;;4943787;28;20441;-75
2023/06/21 02:23:01;;;;;;;37.33;33.58;;;19.30;99.90;;;;;;4974649;28;20572;-76
2023/06/21 02:25:28;;;;;;;38.20;34.30;;;19.20;99.90;;;;;;5002798;28;20549;-75
2023/06/21 02:27:53;;;;;;;41.22;37.03;;;19.10;99.90;;;;;;4954798;28;20410;-74
2023/06/21 02:30:19;;;;;;;40.40;36.28;;;19.10;99.90;;;;;;4990562;28;20475;-77
2023/06/21 02:32:45;;;;;;;38.83;34.92;;;19.10;99.90;;;;;;4935551;28;20521;-76
2023/06/21 02:35:10;;;;;;;39.20;35.27;;;19.10;99.90;;;;;;5013318;28;21084;-75
2023/06/21 02:37:37;;;;;;;41.90;37.67;;;18.90;99.90;;;;;;4988396;28;20437;-75
2023/06/21 02:40:13;;;;;;;40.50;36.28;;;19.10;99.90;;;;;;5046613;28;20541;-75
2023/06/21 02:42:39;;;;;;;40.80;36.90;;;19.00;99.90;;;;;;4984024;28;20442;-76
2023/06/21 02:45:06;;;;;;;42.75;38.85;;;19.00;99.90;;;;;;4962603;28;20461;-77
2023/06/21 02:47:32;;;;;;;43.90;39.42;;;18.90;99.90;;;;;;5013376;28;20563;-74
2023/06/21 02:49:58;;;;;;;42.72;38.58;;;18.90;99.90;;;;;;4937132;28;20559;-76
2023/06/21 02:52:24;;;;;;;43.63;39.20;;;18.90;99.90;;;;;;4948371;28;20920;-75
2023/06/21 02:54:51;;;;;;;44.53;39.87;;;18.80;99.90;;;;;;4975498;28;20942;-75
2023/06/21 02:57:17;;;;;;;46.38;41.65;;;18.80;99.90;;;;;;4973762;28;20527;-76
2023/06/21 02:59:43;;;;;;;44.47;40.08;;;18.90;99.90;;;;;;4995415;28;20455;-74
2023/06/21 03:02:09;;;;;;;43.20;39.00;;;18.80;99.90;;;;;;5038582;28;20432;-75
2023/06/21 03:04:35;;;;;;;51.80;43.72;;;18.90;99.90;;;;;;4985296;28;20482;-77
2023/06/21 03:07:01;;;;;;;44.47;39.97;;;18.90;99.90;;;;;;5019548;28;20952;-75
2023/06/21 03:09:27;;;;;;;43.55;39.15;;;18.90;99.90;;;;;;5044252;28;20500;-75
2023/06/21 03:11:53;;;;;;;46.27;41.27;;;18.80;99.90;;;;;;4965784;28;20485;-75
2023/06/21 03:14:19;;;;;;;45.73;40.83;;;18.80;99.90;;;;;;4936939;28;20435;-75
2023/06/21 03:16:45;;;;;;;43.35;38.95;;;18.80;99.90;;;;;;4951805;28;20439;-75
2023/06/21 03:19:11;;;;;;;43.80;39.38;;;18.80;99.90;;;;;;4936065;28;20440;-75
2023/06/21 03:21:37;;;;;;;48.17;42.60;;;18.90;99.90;;;;;;4996624;28;20999;-74
2023/06/21 03:24:03;;;;;;;45.80;40.80;;;18.80;99.90;;;;;;4938178;28;20442;-76
2023/06/21 03:26:29;;;;;;;44.83;39.97;;;18.80;99.90;;;;;;4979920;28;20528;-75
2023/06/21 03:28:57;;;;;;;43.85;39.05;;;18.90;99.90;;;;;;5017639;28;20430;-75
2023/06/21 03:31:23;;;;;;;42.42;38.05;;;18.70;99.90;;;;;;4995067;28;20435;-75
2023/06/21 03:33:49;;;;;;;44.00;39.40;;;18.90;99.90;;;;;;5028225;28;20533;-77
2023/06/21 03:36:15;;;;;;;46.05;41.20;;;18.80;99.90;;;;;;4948394;28;21003;-75
2023/06/21 03:38:40;;;;;;;47.13;40.75;;;18.70;99.90;;;;;;4940428;28;20444;-77
2023/06/21 03:41:06;;;;;;;47.35;40.60;;;18.70;99.90;;;;;;5008075;28;20425;-74
2023/06/21 03:43:32;;;;;;;45.10;40.20;;;18.80;99.90;;;;;;4952299;28;20413;-76
2023/06/21 03:45:58;;;;;;;43.40;38.70;;;18.80;99.90;;;;;;5030205;28;20521;-76
2023/06/21 03:48:24;;;;;;;44.08;38.67;;;18.80;99.90;;;;;;5027684;28;20417;-76
2023/06/21 03:50:50;;;;;;;42.92;37.10;;;18.70;99.90;;;;;;4999973;28;20432;-74
2023/06/21 03:53:16;;;;;;;42.95;36.80;;;18.80;99.90;;;;;;4948694;28;20426;-76
2023/06/21 03:55:43;;;;;;;43.37;37.93;;;18.80;99.90;;;;;;4920222;28;20440;-75
2023/06/21 03:58:09;;;;;;;42.70;37.60;;;18.80;99.90;;;;;;4929972;29;20427;-76
2023/06/21 04:00:35;;;;;;;42.83;37.95;;;18.70;99.90;;;;;;5001734;28;20440;-76
2023/06/21 04:03:01;;;;;;;40.92;36.55;;;18.90;99.90;;;;;;4951332;28;20442;-76
2023/06/21 04:05:27;;;;;;;41.85;36.58;;;18.80;99.90;;;;;;4977299;28;20430;-76
2023/06/21 04:07:53;;;;;;;40.38;36.15;;;19.00;99.90;;;;;;4989131;28;20515;-77
2023/06/21 04:10:19;;;;;;;44.97;37.60;;;18.80;99.90;;;;;;4952799;28;20845;-77
2023/06/21 04:12:45;;;;;;;42.47;35.10;;;18.80;99.90;;;;;;4959833;28;20500;-77
2023/06/21 04:15:11;;;;;;;44.85;35.88;;;18.90;99.90;;;;;;5009129;28;20425;-76
2023/06/21 04:17:37;;;;;;;36.42;31.70;;;18.90;99.90;;;;;;4957260;28;20438;-74
2023/06/21 04:20:14;;;;;;;36.17;31.73;;;19.00;99.90;;;;;;4951530;28;20752;-76
2023/06/21 04:22:41;;;;;;;36.08;32.10;;;18.90;99.90;;;;;;4979360;28;20439;-75
2023/06/21 04:25:10;;;;;;;35.72;30.27;;;18.90;99.90;;;;;;5019786;28;20424;-76
2023/06/21 04:27:36;;;;;;;34.07;29.40;;;18.90;99.90;;;;;;4968227;28;20826;-74
2023/06/21 04:30:02;;;;;;;33.53;29.33;;;18.80;99.90;;;;;;4991080;28;20426;-76
2023/06/21 04:32:31;;;;;;;35.07;29.53;;;18.90;99.90;;;;;;4977649;28;20434;-77
2023/06/21 04:34:59;;;;;;;34.47;29.23;;;19.20;99.90;;;;;;5044589;28;20866;-76
2023/06/21 04:37:25;;;;;;;29.13;26.02;;;19.30;99.90;;;;;;5025039;28;20939;-77
2023/06/21 04:39:52;;;;;;;31.27;26.88;;;19.00;99.90;;;;;;4948742;28;20927;-76
2023/06/21 04:42:20;;;;;;;30.98;25.52;;;19.00;99.90;;;;;;4968613;28;20417;-76
2023/06/21 04:44:48;;;;;;;31.50;24.80;;;19.00;99.90;;;;;;5025192;28;20429;-76
2023/06/21 04:47:15;;;;;;;29.67;23.35;;;19.00;99.90;;;;;;5015065;28;20433;-77
2023/06/21 04:49:41;;;;;;;31.42;23.80;;;19.10;99.90;;;;;;4990007;28;20463;-76
2023/06/21 04:52:07;;;;;;;28.20;22.05;;;19.00;99.90;;;;;;4976347;28;20439;-74
2023/06/21 04:54:32;;;;;;;26.83;23.27;;;19.00;99.90;;;;;;5026075;28;20453;-76
2023/06/21 04:56:58;;;;;;;28.07;22.60;;;19.10;99.90;;;;;;4933020;28;20431;-75
2023/06/21 04:59:24;;;;;;;27.27;22.27;;;19.00;99.90;;;;;;5006744;28;20417;-75
2023/06/21 05:01:49;;;;;;;25.05;20.45;;;19.00;99.90;;;;;;5028884;28;20421;-75
2023/06/21 05:04:15;;;;;;;23.17;20.60;;;19.10;99.90;;;;;;4986493;28;20418;-74
2023/06/21 05:06:41;;;;;;;22.67;17.83;;;19.00;99.90;;;;;;4967222;28;20441;-75
2023/06/21 05:09:08;;;;;;;23.30;20.10;;;18.90;99.90;;;;;;5002949;28;20425;-76
2023/06/21 05:11:36;;;;;;;23.08;17.88;;;18.80;99.90;;;;;;4965436;28;20771;-74
2023/06/21 05:14:02;;;;;;;23.90;17.83;;;18.80;99.90;;;;;;4969566;28;20515;-75
2023/06/21 05:16:28;;;;;;;23.73;18.88;;;19.00;99.90;;;;;;4979428;28;20433;-74
2023/06/21 05:18:54;;;;;;;25.50;19.53;;;18.90;99.90;;;;;;4980424;28;20487;-76
2023/06/21 05:21:19;;;;;;;21.52;18.83;;;19.00;99.90;;;;;;4988334;28;20440;-75
2023/06/21 05:23:45;;;;;;;23.60;17.58;;;19.00;99.90;;;;;;5026294;28;20429;-77
2023/06/21 05:26:11;;;;;;;24.03;17.67;;;18.90;99.90;;;;;;5018742;28;20507;-75
2023/06/21 05:28:36;;;;;;;25.93;18.70;;;18.90;99.90;;;;;;4965534;28;20437;-74
2023/06/21 05:31:02;;;;;;;22.17;16.77;;;18.90;99.90;;;;;;4984785;28;20455;-74
2023/06/21 05:33:27;;;;;;;22.10;16.73;;;18.90;99.90;;;;;;4988649;28;20434;-75
2023/06/21 05:35:53;;;;;;;23.97;17.37;;;18.90;99.90;;;;;;4980515;28;20476;-75
2023/06/21 05:38:19;;;;;;;22.60;17.77;;;19.10;99.90;;;;;;4951230;28;20458;-74
2023/06/21 05:40:44;;;;;;;23.30;16.67;;;19.10;99.90;;;;;;4953102;28;20434;-74
2023/06/21 05:43:10;;;;;;;22.20;17.02;;;19.20;99.90;;;;;;4962131;28;20414;-73
2023/06/21 05:45:38;;;;;;;24.80;16.52;;;19.20;99.90;;;;;;5046024;28;21371;-76
2023/06/21 05:48:04;;;;;;;21.58;16.63;;;19.30;99.90;;;;;;5009806;28;20471;-76
2023/06/21 05:50:30;;;;;;;25.60;18.37;;;19.30;99.90;;;;;;4945981;29;20513;-76
2023/06/21 05:52:57;;;;;;;19.50;16.45;;;19.30;99.90;;;;;;5014683;28;20423;-75
2023/06/21 05:55:23;;;;;;;19.10;16.70;;;19.30;99.90;;;;;;4984763;28;20430;-76
2023/06/21 05:57:49;;;;;;;21.03;15.60;;;19.30;99.90;;;;;;4946615;29;20414;-75
2023/06/21 06:00:16;;;;;;;19.17;16.80;;;19.20;99.90;;;;;;5005012;28;20792;-75
2023/06/21 06:02:41;;;;;;;28.33;18.52;;;19.40;99.90;;;;;;4973463;28;20426;-75
2023/06/21 06:05:08;;;;;;;19.07;15.63;;;19.40;99.90;;;;;;4947388;28;20498;-76
2023/06/21 06:07:34;;;;;;;19.17;16.75;;;19.50;99.90;;;;;;4927437;29;20408;-75
2023/06/21 06:10:00;;;;;;;20.27;16.95;;;19.40;99.90;;;;;;4959416;28;20431;-76
2023/06/21 06:12:25;;;;;;;21.88;17.48;;;19.70;99.90;;;;;;4944855;28;20454;-75
2023/06/21 06:14:51;;;;;;;17.83;15.90;;;19.70;99.90;;;;;;4928973;28;20495;-77
2023/06/21 06:17:17;;;;;;;17.27;15.27;;;19.70;99.90;;;;;;4942069;28;20527;-76
2023/06/21 06:19:43;;;;;;;19.92;16.17;;;19.60;99.90;;;;;;4931979;28;20430;-75
2023/06/21 06:22:08;;;;;;;22.67;16.58;;;19.70;99.90;;;;;;4973502;28;20425;-76
2023/06/21 06:24:34;;;;;;;20.70;16.00;;;19.70;99.90;;;;;;4974025;28;20434;-76
2023/06/21 06:26:59;;;;;;;19.77;16.05;;;19.70;99.90;;;;;;4946559;28;20434;-75
2023/06/21 06:29:25;;;;;;;17.42;15.07;;;19.70;99.90;;;;;;4944878;28;20421;-77
2023/06/21 06:31:51;;;;;;;19.93;16.40;;;19.80;99.90;;;;;;4944694;28;20437;-75
2023/06/21 06:34:17;;;;;;;20.05;14.90;;;20.00;99.90;;;;;;4990339;28;20425;-76
2023/06/21 06:36:43;;;;;;;17.30;14.80;;;20.00;99.90;;;;;;4955471;28;20442;-75
2023/06/21 06:39:09;;;;;;;19.50;15.47;;;20.00;99.90;;;;;;4944061;28;20445;-77
2023/06/21 06:41:35;;;;;;;17.35;14.30;;;20.20;99.90;;;;;;4944955;28;20932;-76
2023/06/21 06:44:00;;;;;;;17.95;14.13;;;20.10;99.90;;;;;;4962339;28;20425;-76
2023/06/21 06:46:26;;;;;;;18.25;14.20;;;20.10;99.90;;;;;;4988942;28;20923;-74
2023/06/21 06:48:52;;;;;;;19.00;13.90;;;20.10;99.90;;;;;;4944551;28;21046;-74
2023/06/21 06:51:18;;;;;;;17.50;14.27;;;20.10;99.90;;;;;;4949765;28;20438;-73
2023/06/21 06:53:43;;;;;;;15.38;13.32;;;20.30;99.90;;;;;;4950539;28;20509;-74
2023/06/21 06:56:09;;;;;;;17.75;13.57;;;20.40;99.90;;;;;;4931231;28;20733;-74
2023/06/21 06:58:35;;;;;;;17.83;14.23;;;20.70;99.90;;;;;;4972428;28;20419;-74
2023/06/21 07:01:05;;;;;;;15.67;12.83;;;20.80;99.90;;;;;;4965087;28;20788;-75
2023/06/21 07:03:31;;;;;;;14.52;12.23;;;21.10;99.90;;;;;;4931577;28;20414;-77
2023/06/21 07:05:56;;;;;;;14.57;11.30;;;21.50;99.90;;;;;;4948604;29;20862;-74
2023/06/21 07:08:22;;;;;;;13.23;11.07;;;21.90;99.90;;;;;;4954536;28;20937;-73
2023/06/21 07:10:47;;;;;;;12.80;10.73;;;22.10;99.90;;;;;;4931222;29;20441;-75
2023/06/21 07:13:13;;;;;;;15.75;10.73;;;22.40;99.90;;;;;;4969610;28;20434;-74
2023/06/21 07:15:39;;;;;;;12.87;11.13;;;22.20;99.90;;;;;;4947822;28;20516;-73
2023/06/21 07:18:05;;;;;;;12.30;10.23;;;22.40;99.90;;;;;;5002057;28;20466;-76
2023/06/21 07:20:31;;;;;;;12.07;10.10;;;22.70;99.90;;;;;;4955093;28;20442;-73
2023/06/21 07:22:57;;;;;;;12.80;10.68;;;22.80;99.90;;;;;;4981533;28;20426;-74
2023/06/21 07:25:23;;;;;;;11.80;9.90;;;23.00;99.90;;;;;;4967248;28;20434;-75
2023/06/21 07:27:49;;;;;;;13.05;10.55;;;23.10;99.90;;;;;;4983458;28;20490;-75
2023/06/21 07:30:16;;;;;;;12.52;10.07;;;23.10;99.90;;;;;;4948519;28;20878;-75
2023/06/21 07:32:42;;;;;;;15.15;9.98;;;23.00;99.90;;;;;;5001844;28;20461;-74
2023/06/21 07:35:08;;;;;;;14.13;10.77;;;22.90;99.90;;;;;;5050716;28;20528;-73
2023/06/21 07:37:34;;;;;;;12.35;9.77;;;23.40;99.90;;;;;;4951012;28;20434;-75
2023/06/21 07:40:00;;;;;;;15.18;10.88;;;24.30;99.90;;;;;;4948091;28;20449;-74
2023/06/21 07:42:26;;;;;;;14.23;9.63;;;24.80;99.90;;;;;;5025958;28;20429;-73
2023/06/21 07:44:54;;;;;;;11.27;9.50;;;24.40;99.90;;;;;;4929731;29;20420;-74
2023/06/21 07:47:20;;;;;;;10.18;9.15;;;24.50;99.90;;;;;;4931747;28;20438;-74
2023/06/21 07:49:46;;;;;;;9.32;8.32;;;24.60;99.90;;;;;;5024573;28;20433;-76
2023/06/21 07:52:12;;;;;;;10.50;8.70;;;24.30;99.90;;;;;;4943199;28;20445;-74
2023/06/21 07:54:38;;;;;;;10.50;9.40;;;23.30;99.90;;;;;;4947144;28;20423;-74
2023/06/21 07:57:04;;;;;;;14.57;9.98;;;23.40;99.90;;;;;;4986689;28;20434;-74
2023/06/21 07:59:33;;;;;;;10.73;9.50;;;23.10;99.90;;;;;;4967212;28;20410;-75
2023/06/21 08:01:58;;;;;;;11.45;9.43;;;22.80;99.90;;;;;;4967306;28;20580;-73
2023/06/21 08:04:24;;;;;;;10.10;9.00;;;23.10;99.90;;;;;;4972525;28;20512;-75
2023/06/21 08:06:50;;;;;;;9.63;8.27;;;23.00;99.90;;;;;;4998017;28;20445;-73
2023/06/21 08:09:16;;;;;;;10.60;9.50;;;22.90;99.90;;;;;;4985813;28;20433;-71
2023/06/21 08:11:42;;;;;;;11.02;9.23;;;23.10;99.90;;;;;;5035174;28;21263;-74
2023/06/21 08:14:07;;;;;;;10.77;9.37;;;23.20;99.90;;;;;;4965164;28;20438;-74
2023/06/21 08:16:33;;;;;;;10.18;8.85;;;23.20;99.90;;;;;;4960567;28;20768;-73
2023/06/21 08:18:59;;;;;;;8.75;7.32;;;23.00;99.90;;;;;;4965704;28;20426;-73
2023/06/21 08:21:25;;;;;;;13.52;9.30;;;23.00;99.90;;;;;;4941968;29;20437;-74
2023/06/21 08:23:52;;;;;;;9.82;8.13;;;23.30;99.90;;;;;;4954761;28;20448;-74
2023/06/21 08:26:17;;;;;;;10.02;8.77;;;23.50;99.90;;;;;;4946757;28;21120;-74
2023/06/21 08:28:45;;;;;;;9.95;8.98;;;23.60;99.90;;;;;;4999257;28;20504;-74
2023/06/21 08:31:11;;;;;;;10.65;8.57;;;23.70;99.90;;;;;;5018593;28;20441;-75
2023/06/21 08:33:37;;;;;;;9.95;8.63;;;23.70;99.90;;;;;;4987280;28;20421;-74
2023/06/21 08:36:06;;;;;;;9.52;8.32;;;23.60;99.90;;;;;;5044470;28;20471;-75
2023/06/21 08:38:32;;;;;;;9.43;8.52;;;24.00;99.90;;;;;;5042936;28;20428;-74
2023/06/21 08:41:01;;;;;;;9.43;8.15;;;23.80;99.90;;;;;;5009251;28;20433;-75
2023/06/21 08:43:28;;;;;;;11.10;8.95;;;23.80;99.90;;;;;;5025635;28;20428;-73
2023/06/21 08:45:55;;;;;;;11.02;8.10;;;23.90;99.90;;;;;;5043691;28;20406;-75
2023/06/21 08:48:22;;;;;;;10.32;8.25;;;24.20;99.90;;;;;;4980779;28;20433;-75
2023/06/21 08:50:50;;;;;;;13.20;8.90;;;23.90;99.90;;;;;;4945868;28;20450;-75
2023/06/21 08:53:32;;;;;;;10.18;8.48;;;23.70;99.90;;;;;;4951005;28;20438;-76
2023/06/21 08:56:00;;;;;;;10.95;8.82;;;24.00;99.90;;;;;;4939500;29;20457;-75
2023/06/21 08:58:31;;;;;;;11.35;9.13;;;23.90;99.90;;;;;;4948560;29;20486;-76
2023/06/21 09:00:59;;;;;;;10.80;8.88;;;23.80;99.90;;;;;;4970761;28;20446;-77
2023/06/21 09:03:50;;;;;;;9.80;8.90;;;24.10;99.90;;;;;;4948519;29;20453;-76
2023/06/21 09:06:22;;;;;;;8.60;7.70;;;24.30;99.90;;;;;;4929088;29;20559;-76
2023/06/21 09:08:50;;;;;;;9.73;8.00;;;24.30;99.90;;;;;;4960698;28;20492;-76
2023/06/21 09:11:17;;;;;;;12.20;9.02;;;24.30;99.90;;;;;;4931830;28;20935;-76
2023/06/21 09:13:47;;;;;;;9.98;8.48;;;24.20;99.90;;;;;;4930997;28;20418;-75
2023/06/21 09:16:14;;;;;;;10.30;8.80;;;24.50;99.90;;;;;;4940003;28;20438;-76
2023/06/21 09:18:40;;;;;;;10.60;8.40;;;24.60;99.90;;;;;;4945974;29;20488;-76
2023/06/21 09:21:10;;;;;;;9.13;7.60;;;24.80;99.90;;;;;;4944291;28;20894;-75
2023/06/21 09:23:39;;;;;;;9.25;8.35;;;24.70;99.90;;;;;;4946870;28;20491;-76
2023/06/21 09:26:05;;;;;;;9.50;8.25;;;24.60;99.90;;;;;;4933477;28;20563;-76
2023/06/21 09:28:31;;;;;;;8.27;7.47;;;24.50;99.90;;;;;;4966245;28;20456;-75
2023/06/21 09:30:58;;;;;;;7.55;6.70;;;24.80;99.90;;;;;;4965313;28;20430;-75
2023/06/21 09:33:25;;;;;;;27.50;9.48;;;24.80;99.90;;;;;;4950525;28;20422;-76
2023/06/21 09:35:50;;;;;;;10.05;7.68;;;24.30;99.90;;;;;;4946254;29;20429;-75
2023/06/21 09:38:24;;;;;;;7.43;6.72;;;24.40;99.90;;;;;;4930741;28;20430;-76
2023/06/21 09:40:51;;;;;;;8.43;6.43;;;24.50;99.90;;;;;;4964282;28;20470;-75
2023/06/21 09:43:20;;;;;;;10.30;7.15;;;24.70;99.90;;;;;;4929273;28;20785;-75
2023/06/21 09:46:11;;;;;;;6.55;5.68;;;24.50;99.90;;;;;;4944054;29;20425;-76
2023/06/21 09:48:38;;;;;;;7.88;6.75;;;24.70;99.90;;;;;;4945668;29;20479;-75
2023/06/21 09:51:06;;;;;;;7.60;6.27;;;24.40;99.90;;;;;;4945500;28;20785;-75
2023/06/21 09:53:32;;;;;;;6.28;5.68;;;24.60;99.90;;;;;;4973734;28;20492;-76
2023/06/21 09:56:01;;;;;;;8.02;5.72;;;24.30;99.90;;;;;;4945656;28;20797;-76
2023/06/21 09:58:27;;;;;;;7.00;5.00;;;24.30;99.90;;;;;;4946426;28;20812;-76
2023/06/21 10:00:56;;;;;;;7.33;4.53;;;24.80;99.90;;;;;;4940129;28;20446;-76
2023/06/21 10:03:23;;;;;;;5.40;4.05;;;24.90;99.90;;;;;;4948947;28;20423;-76
2023/06/21 10:05:54;;;;;;;6.82;5.45;;;25.10;99.90;;;;;;4947159;28;20503;-78
2023/06/21 10:08:32;;;;;;;5.68;5.05;;;24.60;99.90;;;;;;4963556;28;20575;-75
2023/06/21 10:10:59;;;;;;;6.25;4.47;;;24.80;99.90;;;;;;4944412;28;20418;-76
2023/06/21 10:13:29;;;;;;;6.03;4.90;;;24.80;99.90;;;;;;4945624;29;20430;-76
2023/06/21 10:15:56;;;;;;;5.85;5.35;;;24.70;99.90;;;;;;5005682;28;20429;-77
2023/06/21 10:18:23;;;;;;;7.32;6.15;;;25.00;99.90;;;;;;4945593;28;20620;-76
2023/06/21 10:21:02;;;;;;;6.35;5.53;;;25.30;99.90;;;;;;5014329;28;20442;-76
2023/06/21 10:23:31;;;;;;;7.28;6.30;;;25.40;99.90;;;;;;4946375;29;20422;-76
2023/06/21 10:26:05;;;;;;;7.32;5.90;;;25.60;99.90;;;;;;4996001;28;20575;-76
2023/06/21 10:28:36;;;;;;;7.60;6.10;;;25.70;99.90;;;;;;4945164;28;20429;-76
2023/06/21 10:31:03;;;;;;;7.15;5.63;;;25.40;99.90;;;;;;4928792;29;20437;-76
2023/06/21 10:33:32;;;;;;;7.70;7.00;;;25.10;99.90;;;;;;4949607;29;20440;-76
2023/06/21 10:36:01;;;;;;;7.70;6.47;;;25.00;99.90;;;;;;4931977;29;20970;-75
2023/06/21 10:38:33;;;;;;;8.32;7.30;;;24.90;99.90;;;;;;4948586;28;20422;-76
2023/06/21 10:41:00;;;;;;;7.90;6.32;;;24.90;99.90;;;;;;5015187;28;20509;-76
2023/06/21 10:43:27;;;;;;;8.20;6.15;;;24.70;99.90;;;;;;4949218;28;20454;-76
2023/06/21 10:45:55;;;;;;;8.38;5.93;;;24.80;99.90;;;;;;4931528;29;20959;-76
2023/06/21 10:48:21;;;;;;;7.95;7.25;;;24.70;99.90;;;;;;4933396;28;20446;-76
2023/06/21 10:50:48;;;;;;;8.60;6.95;;;24.40;99.90;;;;;;5043274;28;20425;-76
2023/06/21 10:53:18;;;;;;;8.53;7.70;;;24.60;99.90;;;;;;5051549;28;20418;-76
2023/06/21 10:55:46;;;;;;;8.45;7.65;;;24.80;99.90;;;;;;5029456;28;20516;-76
2023/06/21 10:58:13;;;;;;;9.70;7.47;;;24.80;99.90;;;;;;4999408;28;20434;-75
2023/06/21 11:00:41;;;;;;;10.52;6.82;;;25.20;99.90;;;;;;5014678;28;20490;-76
2023/06/21 11:03:12;;;;;;;8.82;7.90;;;25.70;99.90;;;;;;4960837;28;20476;-76
2023/06/21 11:05:39;;;;;;;9.55;7.38;;;25.60;99.90;;;;;;5028856;28;20436;-75
2023/06/21 11:08:05;;;;;;;8.65;7.75;;;25.60;99.90;;;;;;5012571;28;20481;-75
2023/06/21 11:10:53;;;;;;;7.50;6.70;;;25.90;99.90;;;;;;4963573;28;21024;-76
2023/06/21 11:13:35;;;;;;;8.57;7.78;;;26.00;99.90;;;;;;4954218;28;20765;-74
2023/06/21 11:16:17;;;;;;;9.07;8.18;;;25.80;99.90;;;;;;4948019;28;20448;-74
2023/06/21 11:18:50;;;;;;;11.07;7.95;;;25.70;99.90;;;;;;4966818;28;20460;-75
2023/06/21 11:21:34;;;;;;;11.35;9.00;;;25.80;99.90;;;;;;5033277;28;20467;-76
2023/06/21 11:24:06;;;;;;;11.65;9.43;;;25.90;99.90;;;;;;4995768;28;20509;-74
2023/06/21 11:26:54;;;;;;;11.25;8.18;;;26.20;99.90;;;;;;5046878;28;20934;-75
2023/06/21 11:29:20;;;;;;;9.57;8.17;;;25.90;99.90;;;;;;5003498;28;20998;-77
2023/06/21 11:31:47;;;;;;;12.05;8.10;;;25.90;99.90;;;;;;5015103;28;20410;-76
2023/06/21 11:34:23;;;;;;;13.75;7.97;;;25.50;99.90;;;;;;4948900;28;20417;-75
2023/06/21 11:36:49;;;;;;;10.05;7.45;;;26.00;99.90;;;;;;4979058;28;20903;-75
2023/06/21 11:39:15;;;;;;;9.70;6.50;;;26.00;99.90;;;;;;4927100;28;20485;-76
2023/06/21 11:41:43;;;;;;;12.67;7.33;;;26.20;99.90;;;;;;4949327;28;20442;-77
2023/06/21 11:44:19;;;;;;;6.67;6.00;;;26.10;99.90;;;;;;4950201;28;20430;-77
2023/06/21 11:46:46;;;;;;;5.93;4.03;;;26.10;99.90;;;;;;5003752;28;20433;-75
2023/06/21 11:49:12;;;;;;;6.33;3.80;;;25.60;99.90;;;;;;5040668;28;20945;-76
2023/06/21 11:52:00;;;;;;;5.05;2.78;;;26.20;99.90;;;;;;5004183;28;20417;-75
2023/06/21 11:54:34;;;;;;;9.82;6.20;;;26.30;99.90;;;;;;4943115;28;20418;-76
2023/06/21 11:56:59;;;;;;;6.28;4.75;;;26.10;99.90;;;;;;4932069;28;20439;-77
2023/06/21 11:59:26;;;;;;;6.57;5.97;;;26.10;99.90;;;;;;4999570;28;20432;-77
2023/06/21 12:01:53;;;;;;;8.10;5.25;;;26.20;99.90;;;;;;4952307;28;20430;-76
2023/06/21 12:04:26;;;;;;;6.07;5.35;;;26.30;99.90;;;;;;4950290;28;20430;-77
2023/06/21 12:06:54;;;;;;;7.17;5.00;;;26.10;99.90;;;;;;5041662;28;20420;-76
2023/06/21 12:09:19;;;;;;;5.07;4.10;;;26.30;99.90;;;;;;5032917;28;20450;-75
2023/06/21 12:11:47;;;;;;;6.50;5.80;;;26.50;99.90;;;;;;4995374;28;20421;-76
2023/06/21 12:14:14;;;;;;;5.82;5.22;;;26.60;99.90;;;;;;4986227;28;20522;-77
2023/06/21 12:16:43;;;;;;;6.43;5.80;;;26.60;99.90;;;;;;5021909;28;20422;-78
2023/06/21 12:19:09;;;;;;;7.88;5.80;;;26.70;99.90;;;;;;4951299;28;20804;-77
2023/06/21 12:21:36;;;;;;;7.57;5.97;;;26.80;99.90;;;;;;5015110;28;20899;-76
2023/06/21 12:24:02;;;;;;;7.07;5.40;;;26.30;99.90;;;;;;4934197;28;20458;-75
2023/06/21 12:26:29;;;;;;;5.23;4.70;;;26.60;99.90;;;;;;5021924;28;20437;-76
2023/06/21 12:28:55;;;;;;;5.28;4.78;;;26.90;99.90;;;;;;4943597;28;20456;-75
2023/06/21 12:31:20;;;;;;;7.90;6.80;;;27.10;99.90;;;;;;4946687;28;20904;-75
2023/06/21 12:33:53;;;;;;;8.03;6.80;;;27.30;99.90;;;;;;4946540;28;20426;-76
2023/06/21 12:36:23;;;;;;;11.27;8.00;;;27.10;99.90;;;;;;5000495;28;20421;-76
2023/06/21 12:38:51;;;;;;;11.27;6.93;;;26.90;99.90;;;;;;4967319;28;20457;-74